Terminal Aerodrome Forecast
Issued by NWS

Home | Current Version | Previous Version | Text Only | Print | Product List | Glossary On
Versions: 1 2 3 4 5 6 7 8 9 10 11 12 13 14
834
FTUS45 KVEF 170520
TAFEED
TAF
KEED 170520Z 1706/1806 25007KT P6SM SKC
     FM170900 VRB05KT P6SM SKC
     FM172000 18008KT P6SM FEW150
     FM180100 25007KT P6SM SKC=

USA.gov is the U.S. government's official web portal to all federal, state and local government web resources and services.